Raleigh, Mississippi
Current Conditions -  °F | °C
As of 3:54 PM on Friday 24 Oct 2014 (Local Time) from KJAN Reporting Station
Clear Clear  
Wind Chill: 75°   Ceiling: Unl
Heat Index: 75°   Visibility: 10mi
Dew Point: 42°   Wind: 7mph
Humidity: 31%   Direction: 320°NW
Pressure: 30.08"   Gusts: NA
Location:  32.03°N, 89.52°W
Report Text: KJAN 242054Z 32006KT 10SM CLR 24/06 A3008 RMK AO2 SLP185 T02390056 55008
Loading
Personal Weather Stations






























Interactive Weather Map
Tropical Storm Tracking
New forecast layout! Learn more

10-Day Weather Forecast

Advertisements
Track Severe Weather on mobile